createdAt,value
2022-12-11T00:00:06.255Z,30.47
2022-12-11T00:02:32.842Z,31.90
2022-12-11T00:04:59.342Z,26.17
2022-12-11T00:07:25.941Z,32.93
2022-12-11T00:09:52.434Z,25.83
2022-12-11T00:12:18.920Z,21.43
2022-12-11T00:14:45.638Z,28.30
2022-12-11T00:17:12.113Z,24.13
2022-12-11T00:19:38.636Z,22.87
2022-12-11T00:22:05.126Z,25.27
2022-12-11T00:24:31.630Z,24.43
2022-12-11T00:26:58.468Z,27.90
2022-12-11T00:29:24.929Z,25.03
2022-12-11T00:31:51.571Z,28.10
2022-12-11T00:34:18.215Z,30.07
2022-12-11T00:36:44.842Z,26.37
2022-12-11T00:39:11.456Z,23.10
2022-12-11T00:41:37.977Z,28.10
2022-12-11T00:44:04.820Z,26.77
2022-12-11T00:46:31.482Z,27.00
2022-12-11T00:48:58.541Z,31.17
2022-12-11T00:51:25.858Z,30.70
2022-12-11T00:53:52.994Z,27.37
2022-12-11T00:56:21.861Z,30.97
2022-12-11T00:58:49.182Z,26.20
2022-12-11T01:01:18.320Z,26.00
2022-12-11T01:03:44.913Z,23.53
2022-12-11T01:06:16.384Z,23.80
2022-12-11T01:08:44.000Z,29.23
2022-12-11T01:11:12.339Z,29.00
2022-12-11T01:13:39.897Z,26.97
2022-12-11T01:16:14.178Z,27.50
2022-12-11T01:18:41.401Z,24.97
2022-12-11T01:21:13.514Z,27.90
2022-12-11T01:23:40.137Z,30.53
2022-12-11T01:26:09.025Z,31.40
2022-12-11T01:28:35.897Z,28.93
2022-12-11T01:31:02.511Z,28.73
2022-12-11T01:33:29.180Z,31.87
2022-12-11T01:35:55.635Z,30.27
2022-12-11T01:38:22.201Z,25.20
2022-12-11T01:40:49.733Z,26.80
2022-12-11T01:43:16.256Z,30.20
2022-12-11T01:45:45.140Z,27.57
2022-12-11T01:48:18.971Z,31.13
2022-12-11T01:50:50.445Z,25.93
2022-12-11T01:53:22.749Z,22.63
2022-12-11T01:55:51.532Z,26.60
2022-12-11T01:58:18.863Z,25.07
2022-12-11T02:00:45.537Z,28.60
2022-12-11T02:03:12.082Z,26.00
2022-12-11T02:05:38.950Z,22.00
2022-12-11T02:08:06.933Z,27.53
2022-12-11T02:10:42.937Z,25.23
2022-12-11T02:13:23.758Z,25.63
2022-12-11T02:15:59.392Z,24.30
2022-12-11T02:18:47.572Z,26.70
2022-12-11T02:21:23.144Z,27.60
2022-12-11T02:24:04.960Z,28.60
2022-12-11T02:26:47.574Z,29.93
2022-12-11T02:29:23.334Z,24.23
2022-12-11T02:32:15.039Z,21.70
2022-12-11T02:34:45.220Z,25.13
2022-12-11T02:37:17.086Z,25.60
2022-12-11T02:39:44.694Z,21.87
2022-12-11T02:42:12.784Z,27.47
2022-12-11T02:44:40.626Z,21.97
2022-12-11T02:47:11.829Z,24.97
2022-12-11T02:49:39.072Z,33.80
2022-12-11T02:52:06.474Z,25.17
2022-12-11T02:54:36.215Z,25.60
2022-12-11T02:57:09.782Z,32.33
2022-12-11T02:59:39.076Z,24.50
2022-12-11T03:02:06.004Z,25.20
2022-12-11T03:04:34.383Z,28.00
2022-12-11T03:07:11.938Z,26.50
2022-12-11T03:09:47.313Z,33.80
2022-12-11T03:12:23.185Z,30.50
2022-12-11T03:14:50.190Z,26.30
2022-12-11T03:17:23.495Z,27.87
2022-12-11T03:20:17.491Z,25.20
2022-12-11T03:22:48.936Z,31.80
2022-12-11T03:25:47.326Z,27.37
2022-12-11T03:28:17.212Z,25.73
2022-12-11T03:30:45.266Z,27.33
2022-12-11T03:33:17.783Z,24.90
2022-12-11T03:35:49.072Z,28.93
2022-12-11T03:38:21.860Z,28.87
2022-12-11T03:40:51.402Z,29.03
2022-12-11T03:43:18.222Z,32.00
2022-12-11T03:45:45.675Z,32.40
2022-12-11T03:48:13.689Z,31.90
2022-12-11T03:50:40.573Z,31.70
2022-12-11T03:53:07.237Z,36.00
2022-12-11T03:55:36.446Z,33.20
2022-12-11T03:58:03.037Z,31.00
2022-12-11T04:00:29.938Z,29.03
2022-12-11T04:03:15.058Z,30.17
2022-12-11T04:05:47.947Z,29.30
2022-12-11T04:08:15.047Z,31.87
2022-12-11T04:10:42.104Z,31.47
2022-12-11T04:13:09.574Z,29.63
2022-12-11T04:15:36.966Z,32.07
2022-12-11T04:18:21.980Z,29.73
2022-12-11T04:21:06.987Z,29.37
2022-12-11T04:23:52.167Z,28.40
2022-12-11T04:26:20.319Z,28.97
2022-12-11T04:28:47.623Z,29.97
2022-12-11T04:31:19.635Z,29.90
2022-12-11T04:33:46.254Z,27.90
2022-12-11T04:36:13.314Z,32.70
2022-12-11T04:38:40.603Z,29.03
2022-12-11T04:41:12.515Z,31.30
2022-12-11T04:43:39.270Z,32.13
2022-12-11T04:46:17.927Z,28.50
2022-12-11T04:48:44.950Z,27.40
2022-12-11T04:51:11.654Z,30.33
2022-12-11T04:53:38.456Z,28.37
2022-12-11T04:56:06.469Z,27.00
2022-12-11T04:58:33.678Z,27.47
2022-12-11T05:01:00.159Z,29.33
2022-12-11T05:03:26.787Z,36.43
2022-12-11T05:05:54.055Z,34.17
2022-12-11T05:08:21.829Z,30.30
2022-12-11T05:11:05.902Z,32.47
2022-12-11T05:13:32.839Z,25.40
2022-12-11T05:15:59.397Z,28.23
2022-12-11T05:18:26.581Z,25.90
2022-12-11T05:21:07.901Z,27.47
2022-12-11T05:23:34.985Z,30.60
2022-12-11T05:26:07.697Z,31.37
2022-12-11T05:28:36.917Z,30.33
2022-12-11T05:31:18.432Z,29.03
2022-12-11T05:33:45.959Z,28.33
2022-12-11T05:36:16.042Z,27.60
2022-12-11T05:38:42.630Z,29.27
2022-12-11T05:41:09.182Z,31.37
2022-12-11T05:43:36.639Z,33.90
2022-12-11T05:46:32.475Z,28.07
2022-12-11T05:49:00.808Z,27.27
2022-12-11T05:51:28.608Z,25.77
2022-12-11T05:53:55.930Z,29.33
2022-12-11T05:56:24.687Z,26.80
2022-12-11T05:58:51.335Z,26.73
2022-12-11T06:01:23.892Z,26.93
2022-12-11T06:03:50.660Z,29.53
2022-12-11T06:06:17.541Z,35.73
2022-12-11T06:08:44.002Z,30.20
2022-12-11T06:11:13.338Z,29.77
2022-12-11T06:13:40.194Z,28.17
2022-12-11T06:16:07.961Z,30.20
2022-12-11T06:18:39.061Z,25.00
2022-12-11T06:21:16.340Z,21.87
2022-12-11T06:23:43.449Z,25.53
2022-12-11T06:26:10.847Z,23.37
2022-12-11T06:28:37.693Z,29.33
2022-12-11T06:31:04.601Z,31.47
2022-12-11T06:33:31.454Z,27.37
2022-12-11T06:36:02.340Z,22.90
2022-12-11T06:38:28.815Z,23.27
2022-12-11T06:40:57.073Z,30.43
2022-12-11T06:43:24.043Z,29.37
2022-12-11T06:45:51.198Z,26.60
2022-12-11T06:48:19.145Z,30.53
2022-12-11T06:50:45.852Z,26.07
2022-12-11T06:53:15.826Z,31.63
2022-12-11T06:55:42.683Z,30.53
2022-12-11T06:58:09.963Z,27.77
2022-12-11T07:00:36.753Z,25.70
2022-12-11T07:03:04.020Z,23.57
2022-12-11T07:05:31.633Z,41.63
2022-12-11T07:07:58.422Z,23.80
2022-12-11T07:10:26.356Z,57.83
2022-12-11T07:12:54.213Z,68.27
2022-12-11T07:15:20.842Z,58.30
2022-12-11T07:17:47.297Z,38.60
2022-12-11T07:20:13.810Z,28.53
2022-12-11T07:22:46.072Z,37.23
2022-12-11T07:25:13.298Z,36.20
2022-12-11T07:27:40.031Z,32.60
2022-12-11T07:30:07.145Z,30.23
2022-12-11T07:32:33.717Z,25.73
2022-12-11T07:35:00.380Z,25.70
2022-12-11T07:37:26.860Z,21.53
2022-12-11T07:39:53.515Z,17.00
2022-12-11T07:42:19.976Z,15.97
2022-12-11T07:44:46.437Z,21.10
2022-12-11T07:47:13.302Z,19.17
2022-12-11T07:49:39.942Z,20.37
2022-12-11T07:52:06.464Z,17.83
2022-12-11T07:54:33.119Z,33.93
2022-12-11T07:56:59.610Z,16.83
2022-12-11T07:59:26.118Z,19.37
2022-12-11T08:01:52.596Z,18.27
2022-12-11T08:04:19.444Z,21.80
2022-12-11T08:06:45.940Z,23.83
2022-12-11T08:09:20.725Z,27.33
2022-12-11T08:11:51.469Z,16.93
2022-12-11T08:14:19.597Z,24.07
2022-12-11T08:16:46.552Z,15.87
2022-12-11T08:19:13.758Z,19.90
2022-12-11T08:21:40.507Z,22.40
2022-12-11T08:24:07.353Z,13.33
2022-12-11T08:26:33.900Z,14.90
2022-12-11T08:29:00.967Z,21.63
2022-12-11T08:31:27.793Z,17.27
2022-12-11T08:33:55.689Z,12.07
2022-12-11T08:36:23.291Z,20.10
2022-12-11T08:38:50.525Z,22.60
2022-12-11T08:41:23.127Z,21.47
2022-12-11T08:43:49.952Z,17.40
2022-12-11T08:46:16.531Z,19.93
2022-12-11T08:48:43.528Z,21.07
2022-12-11T08:51:15.707Z,19.57
2022-12-11T08:53:42.757Z,30.43
2022-12-11T08:56:11.844Z,28.00
2022-12-11T08:58:38.732Z,23.13
2022-12-11T09:01:25.392Z,21.60
2022-12-11T09:03:53.031Z,27.40
2022-12-11T09:06:22.002Z,22.77
2022-12-11T09:08:52.550Z,20.30
2022-12-11T09:11:31.414Z,19.70
2022-12-11T09:14:02.093Z,16.30
2022-12-11T09:16:32.177Z,17.23
2022-12-11T09:18:59.462Z,19.40
2022-12-11T09:21:28.554Z,23.23
2022-12-11T09:23:57.351Z,21.10
2022-12-11T09:26:24.420Z,21.37
2022-12-11T09:28:54.224Z,20.60
2022-12-11T09:31:23.597Z,28.10
2022-12-11T09:33:52.251Z,26.30
2022-12-11T09:36:19.018Z,28.27
2022-12-11T09:38:46.193Z,23.73
2022-12-11T09:41:32.015Z,21.80
2022-12-11T09:44:19.432Z,20.67
2022-12-11T09:46:46.813Z,39.63
2022-12-11T09:49:38.720Z,22.77
2022-12-11T09:52:15.813Z,19.53
2022-12-11T09:54:55.339Z,24.90
2022-12-11T09:57:43.229Z,19.83
2022-12-11T10:00:28.661Z,28.83
2022-12-11T10:03:24.642Z,23.77
2022-12-11T10:06:02.598Z,26.13
2022-12-11T10:08:38.486Z,27.43
2022-12-11T10:11:45.828Z,26.30
2022-12-11T10:14:18.605Z,21.60
2022-12-11T10:16:57.874Z,21.73
2022-12-11T10:19:30.074Z,25.17
2022-12-11T10:21:57.911Z,30.67
2022-12-11T10:27:33.725Z,28.27
2022-12-11T10:30:08.803Z,21.63
2022-12-11T10:33:03.900Z,23.90
2022-12-11T10:35:40.795Z,32.67
2022-12-11T10:38:12.272Z,26.60
2022-12-11T10:40:41.769Z,23.10
2022-12-11T10:43:08.362Z,19.13
2022-12-11T10:45:35.058Z,18.27
2022-12-11T10:48:06.823Z,24.30
2022-12-11T10:50:33.638Z,35.13
2022-12-11T10:53:00.576Z,31.37
2022-12-11T10:55:46.042Z,21.17
2022-12-11T10:58:18.126Z,28.67
2022-12-11T11:00:45.394Z,32.07
2022-12-11T11:03:51.759Z,27.60
2022-12-11T11:06:20.619Z,25.53
2022-12-11T11:08:52.950Z,29.23
2022-12-11T11:11:36.865Z,25.13
2022-12-11T11:14:16.713Z,22.30
2022-12-11T11:16:45.966Z,31.23
2022-12-11T11:19:22.763Z,26.87
2022-12-11T11:21:55.380Z,28.17
2022-12-11T11:24:29.019Z,21.47
2022-12-11T11:27:12.826Z,26.73
2022-12-11T11:29:39.677Z,21.17
2022-12-11T11:32:23.503Z,26.20
2022-12-11T11:34:50.004Z,29.67
2022-12-11T11:37:26.291Z,17.07
2022-12-11T11:39:55.750Z,29.33
2022-12-11T11:42:35.080Z,21.23
2022-12-11T11:45:06.167Z,16.53
2022-12-11T11:47:40.594Z,18.93
2022-12-11T11:50:14.918Z,23.80
2022-12-11T11:53:00.047Z,19.43
2022-12-11T11:55:37.705Z,24.77
2022-12-11T11:58:14.816Z,33.50
2022-12-11T12:00:41.628Z,24.73
2022-12-11T12:03:11.236Z,18.13
2022-12-11T12:05:48.829Z,18.20
2022-12-11T12:08:52.624Z,24.93
2022-12-11T12:11:41.189Z,17.20
2022-12-11T12:14:43.755Z,15.10
2022-12-11T12:17:12.611Z,20.63
2022-12-11T12:20:03.855Z,20.33
2022-12-11T12:22:45.673Z,12.87
2022-12-11T12:25:33.049Z,19.73
2022-12-11T12:28:14.680Z,15.53
2022-12-11T12:31:25.982Z,15.97
2022-12-11T12:34:20.435Z,22.93
2022-12-11T12:37:06.796Z,19.10
2022-12-11T12:40:08.838Z,18.17
2022-12-11T12:42:59.621Z,15.40
2022-12-11T12:45:29.459Z,23.83
2022-12-11T12:47:55.972Z,18.33
2022-12-11T12:50:29.965Z,24.13
2022-12-11T12:52:56.959Z,15.27
2022-12-11T12:55:27.189Z,12.70
2022-12-11T12:58:00.362Z,15.70
2022-12-11T13:00:28.258Z,19.13
2022-12-11T13:02:56.156Z,16.13
2022-12-11T13:05:28.622Z,23.13
2022-12-11T13:08:01.132Z,20.03
2022-12-11T13:10:39.332Z,24.37
2022-12-11T13:13:07.222Z,23.27
2022-12-11T13:15:35.536Z,22.43
2022-12-11T13:18:27.506Z,24.60
2022-12-11T13:20:54.094Z,21.37
2022-12-11T13:23:29.514Z,23.83
2022-12-11T13:25:59.064Z,18.20
2022-12-11T13:28:29.087Z,23.00
2022-12-11T13:30:59.873Z,18.00
2022-12-11T13:33:28.114Z,21.90
2022-12-11T13:36:15.794Z,23.50
2022-12-11T13:39:06.170Z,11.37
2022-12-11T13:41:35.460Z,17.93
2022-12-11T13:44:02.994Z,15.70
2022-12-11T13:46:31.889Z,20.43
2022-12-11T13:49:02.043Z,13.50
2022-12-11T13:51:31.394Z,13.30
2022-12-11T13:54:17.403Z,15.53
2022-12-11T13:56:58.440Z,14.33
2022-12-11T13:59:31.629Z,21.07
2022-12-11T14:02:01.681Z,15.17
2022-12-11T14:04:28.955Z,16.30
2022-12-11T14:06:56.591Z,19.10
2022-12-11T14:09:26.182Z,22.97
2022-12-11T14:11:56.747Z,15.37
2022-12-11T14:14:25.382Z,18.53
2022-12-11T14:16:52.763Z,23.73
2022-12-11T14:19:20.683Z,34.13
2022-12-11T14:22:02.354Z,19.60
2022-12-11T14:24:30.265Z,17.70
2022-12-11T14:26:57.195Z,17.40
2022-12-11T14:29:26.078Z,29.00
2022-12-11T14:31:52.940Z,31.37
2022-12-11T14:34:25.326Z,21.83
2022-12-11T14:36:52.553Z,11.33
2022-12-11T14:39:22.057Z,20.10
2022-12-11T14:42:25.196Z,15.90
2022-12-11T14:45:23.765Z,13.83
2022-12-11T14:47:52.094Z,15.03
2022-12-11T14:50:23.352Z,19.53
2022-12-11T14:53:01.369Z,21.23
2022-12-11T14:55:35.257Z,23.93
2022-12-11T14:58:07.704Z,30.90
2022-12-11T15:00:37.020Z,25.30
2022-12-11T15:03:20.899Z,22.13
2022-12-11T15:05:55.809Z,24.50
2022-12-11T15:08:36.943Z,20.03
2022-12-11T15:11:09.864Z,20.90
2022-12-11T15:13:39.225Z,24.83
2022-12-11T15:16:07.573Z,22.90
2022-12-11T15:18:39.170Z,25.70
2022-12-11T15:21:09.508Z,22.87
2022-12-11T15:23:57.049Z,24.50
2022-12-11T15:26:44.987Z,16.40
2022-12-11T15:29:28.117Z,27.17
2022-12-11T15:32:09.919Z,35.20
2022-12-11T15:34:54.429Z,26.80
2022-12-11T15:37:26.559Z,30.37
2022-12-11T15:39:54.804Z,21.80
2022-12-11T15:42:25.586Z,34.90
2022-12-11T15:44:53.073Z,17.93
2022-12-11T15:47:25.916Z,35.40
2022-12-11T15:50:23.138Z,19.43
2022-12-11T15:52:51.232Z,22.80
2022-12-11T15:55:18.674Z,23.20
2022-12-11T15:57:54.706Z,25.87
2022-12-11T16:00:21.789Z,22.33
2022-12-11T16:02:48.455Z,30.87
2022-12-11T16:05:15.081Z,39.80
2022-12-11T16:07:42.656Z,27.93
2022-12-11T16:10:14.660Z,27.70
2022-12-11T16:12:42.051Z,24.73
2022-12-11T16:15:09.440Z,24.67
2022-12-11T16:17:36.600Z,29.57
2022-12-11T16:20:03.477Z,38.67
2022-12-11T16:22:30.568Z,41.50
2022-12-11T16:24:57.069Z,36.63
2022-12-11T16:27:23.757Z,34.73
2022-12-11T16:29:50.994Z,30.00
2022-12-11T16:32:17.942Z,25.47
2022-12-11T16:34:44.952Z,31.53
2022-12-11T16:37:11.884Z,25.47
2022-12-11T16:39:38.528Z,23.47
2022-12-11T16:42:06.033Z,29.33
2022-12-11T16:44:32.729Z,35.70
2022-12-11T16:46:59.296Z,29.73
2022-12-11T16:49:25.718Z,53.37
2022-12-11T16:51:52.399Z,47.27
2022-12-11T16:54:19.074Z,38.70
2022-12-11T16:56:45.625Z,52.97
2022-12-11T16:59:13.122Z,46.30
2022-12-11T17:01:39.955Z,41.23
2022-12-11T17:04:06.802Z,30.20
2022-12-11T17:06:33.702Z,32.17
2022-12-11T17:09:00.438Z,31.50
2022-12-11T17:11:27.214Z,39.13
2022-12-11T17:13:58.616Z,33.30
2022-12-11T17:16:29.059Z,40.33
2022-12-11T17:18:56.643Z,38.97
2022-12-11T17:21:23.379Z,32.77
2022-12-11T17:23:49.989Z,38.97
2022-12-11T17:26:16.810Z,36.40
2022-12-11T17:28:44.860Z,32.50
2022-12-11T17:31:16.919Z,46.57
2022-12-11T17:33:44.775Z,45.07
2022-12-11T17:36:17.133Z,43.20
2022-12-11T17:38:43.844Z,26.70
2022-12-11T17:41:16.930Z,43.90
2022-12-11T17:43:48.406Z,32.40
2022-12-11T17:46:14.975Z,33.40
2022-12-11T17:48:41.698Z,37.20
2022-12-11T17:51:09.682Z,40.00
2022-12-11T17:53:36.511Z,41.60
2022-12-11T17:56:05.135Z,35.53
2022-12-11T17:58:31.726Z,41.27
2022-12-11T18:00:59.026Z,33.07
2022-12-11T18:03:27.571Z,38.27
2022-12-11T18:05:56.418Z,34.80
2022-12-11T18:08:31.372Z,58.10
2022-12-11T18:11:05.401Z,50.50
2022-12-11T18:13:32.491Z,43.80
2022-12-11T18:16:01.289Z,33.97
2022-12-11T18:18:27.979Z,36.60
2022-12-11T18:20:54.599Z,35.57
2022-12-11T18:23:21.234Z,38.43
2022-12-11T18:25:47.926Z,41.23
2022-12-11T18:28:14.618Z,33.43
2022-12-11T18:30:41.282Z,35.73
2022-12-11T18:33:07.780Z,41.97
2022-12-11T18:35:34.412Z,38.97
2022-12-11T18:38:01.019Z,35.47
2022-12-11T18:40:28.862Z,40.17
2022-12-11T18:42:55.798Z,38.07
2022-12-11T18:45:22.264Z,35.73
2022-12-11T18:47:51.359Z,53.63
2022-12-11T18:50:18.430Z,38.00
2022-12-11T18:52:44.851Z,39.63
2022-12-11T18:55:11.744Z,42.57
2022-12-11T18:57:38.796Z,50.10
2022-12-11T19:00:07.569Z,32.00
2022-12-11T19:02:35.356Z,67.33
2022-12-11T19:05:02.020Z,60.17
2022-12-11T19:07:28.461Z,75.43
2022-12-11T19:09:55.191Z,65.77
2022-12-11T19:12:21.694Z,48.83
2022-12-11T19:14:48.887Z,50.47
2022-12-11T19:17:15.456Z,54.13
2022-12-11T19:19:43.299Z,51.57
2022-12-11T19:22:10.027Z,49.30
2022-12-11T19:24:36.512Z,49.67
2022-12-11T19:27:06.201Z,43.50
2022-12-11T19:29:35.167Z,38.57
2022-12-11T19:32:02.816Z,40.87
2022-12-11T19:34:29.417Z,42.30
2022-12-11T19:36:56.090Z,41.70
2022-12-11T19:39:22.803Z,60.13
2022-12-11T19:41:49.622Z,40.50
2022-12-11T19:44:16.170Z,38.50
2022-12-11T19:46:42.823Z,39.20
2022-12-11T19:49:11.282Z,48.63
2022-12-11T19:51:40.013Z,39.30
2022-12-11T19:54:08.290Z,42.43
2022-12-11T19:56:35.644Z,31.93
2022-12-11T19:59:03.923Z,45.20
2022-12-11T20:01:32.490Z,39.60
2022-12-11T20:04:00.950Z,35.73
2022-12-11T20:06:29.192Z,48.10
2022-12-11T20:08:55.730Z,34.27
2022-12-11T20:11:23.656Z,46.77
2022-12-11T20:13:50.682Z,47.50
2022-12-11T20:16:28.860Z,45.83
2022-12-11T20:19:06.142Z,34.90
2022-12-11T20:21:32.776Z,39.33
2022-12-11T20:23:59.825Z,36.60
2022-12-11T20:26:26.387Z,34.57
2022-12-11T20:28:53.567Z,39.00
2022-12-11T20:31:23.230Z,37.03
2022-12-11T20:33:50.102Z,35.10
2022-12-11T20:36:18.110Z,33.47
2022-12-11T20:38:45.252Z,39.23
2022-12-11T20:41:14.017Z,43.33
2022-12-11T20:43:40.939Z,34.37
2022-12-11T20:46:09.132Z,42.50
2022-12-11T20:48:40.051Z,43.00
2022-12-11T20:51:08.213Z,45.37
2022-12-11T20:53:35.550Z,34.03
2022-12-11T20:56:03.159Z,34.00
2022-12-11T20:58:29.825Z,36.53
2022-12-11T21:00:56.420Z,37.53
2022-12-11T21:03:23.020Z,30.53
2022-12-11T21:05:49.686Z,37.63
2022-12-11T21:08:16.339Z,34.40
2022-12-11T21:10:44.445Z,31.73
2022-12-11T21:13:11.014Z,37.43
2022-12-11T21:15:38.775Z,40.13
2022-12-11T21:18:06.694Z,26.63
2022-12-11T21:20:33.668Z,33.73
2022-12-11T21:23:00.338Z,29.37
2022-12-11T21:25:27.379Z,33.03
2022-12-11T21:27:53.980Z,26.70
2022-12-11T21:30:20.440Z,27.37
2022-12-11T21:32:47.753Z,40.53
2022-12-11T21:35:15.128Z,35.43
2022-12-11T21:37:41.766Z,40.23
2022-12-11T21:40:09.478Z,24.23
2022-12-11T21:42:36.069Z,26.00
2022-12-11T21:47:50.397Z,33.83
2022-12-11T21:50:17.912Z,35.27
2022-12-11T21:52:44.656Z,36.83
2022-12-11T21:55:12.783Z,45.50
2022-12-11T21:57:39.458Z,35.83
2022-12-11T22:00:06.702Z,29.83
2022-12-11T22:02:39.061Z,36.60
2022-12-11T22:05:07.799Z,25.60
2022-12-11T22:07:34.330Z,31.50
2022-12-11T22:10:00.767Z,32.97
2022-12-11T22:12:28.632Z,30.80
2022-12-11T22:14:55.527Z,31.17
2022-12-11T22:17:22.595Z,26.27
2022-12-11T22:19:49.788Z,32.50
2022-12-11T22:22:16.489Z,25.30
2022-12-11T22:24:42.971Z,28.93
2022-12-11T22:27:09.538Z,30.63
2022-12-11T22:29:36.064Z,29.60
2022-12-11T22:32:03.208Z,32.30
2022-12-11T22:34:30.415Z,23.10
2022-12-11T22:36:57.312Z,28.13
2022-12-11T22:39:24.726Z,24.00
2022-12-11T22:41:51.465Z,20.93
2022-12-11T22:44:20.698Z,28.03
2022-12-11T22:46:50.217Z,24.77
2022-12-11T22:49:19.137Z,23.90
2022-12-11T22:51:45.758Z,27.40
2022-12-11T22:54:12.937Z,22.93
2022-12-11T22:56:39.530Z,27.73
2022-12-11T22:59:07.618Z,26.93
2022-12-11T23:01:34.316Z,32.20
2022-12-11T23:04:00.898Z,25.27
2022-12-11T23:06:27.645Z,24.00
2022-12-11T23:08:58.187Z,35.70
2022-12-11T23:11:30.559Z,31.83
2022-12-11T23:13:58.273Z,34.00
2022-12-11T23:16:26.028Z,30.23
2022-12-11T23:18:53.592Z,37.10
2022-12-11T23:21:21.776Z,33.07
2022-12-11T23:23:48.877Z,38.90
2022-12-11T23:26:15.932Z,48.90
2022-12-11T23:28:42.879Z,37.93
2022-12-11T23:31:09.803Z,39.37
2022-12-11T23:33:37.316Z,32.47
2022-12-11T23:36:06.192Z,30.60
2022-12-11T23:38:33.275Z,31.40
2022-12-11T23:41:01.587Z,40.20
2022-12-11T23:43:28.381Z,48.63
2022-12-11T23:45:54.873Z,32.20
2022-12-11T23:48:21.453Z,36.93
2022-12-11T23:50:48.230Z,24.30
2022-12-11T23:53:14.708Z,30.37
2022-12-11T23:55:43.494Z,34.00
2022-12-11T23:58:10.886Z,24.60
